Vano — SBNM — position and weather

sailwx.info

Track history (hours):
 
Tides and Currents Weather Stations Pressure Air Temp Water Temp Dewpoint Dewpoint Depression Visibility Wind Speed Wind Dir Waves Ship Positions

Vano

Last reported at 2018-Jun-20 07:30 UTC. Time now 2018-Jun-20 07:45 UTC.
Position N 59°22' E 018°36'.

Length 38 m; draft 2.5 m.

Type: Passenger vessel. MMSI: 265520400.

Date/timePositionNaut miles runAvg speedWind from/ knotsBaromVisibWave heightAir tempDewpointWater temp
2018-Jun-20 07:30N 59°22' E 018°36'0 0.0
2018-Jun-20 06:59N 59°22' E 018°36'0 0.0
2018-Jun-20 06:19N 59°22' E 018°36'0 0.1
2018-Jun-20 06:00N 59°22' E 018°36'4 7.9
2018-Jun-20 05:29N 59°26' E 018°40'3 5.5
2018-Jun-20 04:59N 59°27' E 018°45'3 6.9
2018-Jun-20 04:30N 59°29' E 018°50'1 1.3
2018-Jun-20 03:44N 59°30' E 018°51'0 0.0
2018-Jun-20 03:22N 59°30' E 018°51'0 0.0
2018-Jun-20 02:42N 59°30' E 018°51'0 0.0
2018-Jun-20 02:25N 59°30' E 018°51'0 0.0
2018-Jun-20 01:50N 59°30' E 018°51'0 0.0
2018-Jun-20 00:14N 59°30' E 018°51'0 0.0
2018-Jun-19 22:40N 59°30' E 018°51'0 0.0
2018-Jun-19 19:08N 59°30' E 018°51'0 0.0
2018-Jun-19 18:27N 59°30' E 018°51'0 0.0
2018-Jun-19 17:53N 59°30' E 018°51'0 0.0
2018-Jun-19 17:26N 59°30' E 018°51'0 0.0
2018-Jun-19 16:58N 59°30' E 018°51'4 8.7
2018-Jun-19 16:30N 59°28' E 018°44'3 6.3
2018-Jun-19 16:00N 59°25' E 018°40'3 6.6
2018-Jun-19 15:30N 59°22' E 018°37'5 8.6
2018-Jun-19 14:56N 59°25' E 018°30'2 5.6
2018-Jun-19 14:30N 59°26' E 018°25'3 5.9
2018-Jun-19 14:00N 59°24' E 018°21'4 8.1
2018-Jun-19 13:30N 59°21' E 018°15'510.7
2018-Jun-19 13:00N 59°20' E 018°05'0 0.1
2018-Jun-19 12:30N 59°20' E 018°05'0 0.0
2018-Jun-19 12:00N 59°20' E 018°05'0 0.0
2018-Jun-19 11:30N 59°20' E 018°05'0 0.0
2018-Jun-19 11:01N 59°20' E 018°05'0 0.0
2018-Jun-19 10:31N 59°20' E 018°05'0 0.0
2018-Jun-19 10:01N 59°20' E 018°05'0 0.0
2018-Jun-19 09:30N 59°20' E 018°05'0 0.0
2018-Jun-19 09:00N 59°20' E 018°05'0 0.0
2018-Jun-19 08:31N 59°20' E 018°05'0 0.0
2018-Jun-19 08:00N 59°20' E 018°05'0 0.0
2018-Jun-19 07:31N 59°20' E 018°05'0 0.0
2018-Jun-19 07:00N 59°20' E 018°05'0 0.0
2018-Jun-19 06:31N 59°20' E 018°05'0 0.0
2018-Jun-19 06:01N 59°20' E 018°05'0 0.0
2018-Jun-19 05:30N 59°20' E 018°05'0 0.0
2018-Jun-19 05:01N 59°20' E 018°05'0 0.0
2018-Jun-19 04:30N 59°20' E 018°05'0 0.0
2018-Jun-19 04:01N 59°20' E 018°05'0 0.0
2018-Jun-19 03:30N 59°20' E 018°05'0 0.0
2018-Jun-19 03:00N 59°20' E 018°05'0 0.0
2018-Jun-19 02:30N 59°20' E 018°05'0 0.0
2018-Jun-19 02:01N 59°20' E 018°05'0 0.0
2018-Jun-19 01:30N 59°20' E 018°05'0 0.0
2018-Jun-19 01:00N 59°20' E 018°05'0 0.0
2018-Jun-19 00:30N 59°20' E 018°05'0 0.0
2018-Jun-19 00:00N 59°20' E 018°05'0 0.0
2018-Jun-18 23:30N 59°20' E 018°05'0 0.0
2018-Jun-18 23:00N 59°20' E 018°05'0 0.0
2018-Jun-18 22:30N 59°20' E 018°05'0 0.0
2018-Jun-18 22:00N 59°20' E 018°05'0 0.0
2018-Jun-18 21:30N 59°20' E 018°05'0 0.0
2018-Jun-18 21:00N 59°20' E 018°05'0 0.0
2018-Jun-18 20:30N 59°20' E 018°05'0 0.0
2018-Jun-18 20:00N 59°20' E 018°05'0 0.0
2018-Jun-18 19:30N 59°20' E 018°05'0 0.0
2018-Jun-18 19:00N 59°20' E 018°05'0 0.0
2018-Jun-18 18:30N 59°20' E 018°05'0 0.0
2018-Jun-18 18:00N 59°20' E 018°05'0 0.0
2018-Jun-18 17:30N 59°20' E 018°05'0 0.0
2018-Jun-18 17:00N 59°20' E 018°05'0 0.0
2018-Jun-18 16:30N 59°20' E 018°05'0 0.0
2018-Jun-18 16:00N 59°20' E 018°05'0 0.0
2018-Jun-18 15:30N 59°20' E 018°05'0 0.0
2018-Jun-18 15:00N 59°20' E 018°05'1 1.2
2018-Jun-18 14:30N 59°19' E 018°06'1 1.0
2018-Jun-18 14:00N 59°20' E 018°05'0 0.0
2018-Jun-18 13:30N 59°20' E 018°05'0 0.0
2018-Jun-18 13:00N 59°20' E 018°05'0 0.0
2018-Jun-18 12:30N 59°20' E 018°05'0 0.0
2018-Jun-18 12:00N 59°20' E 018°05'0 0.0
2018-Jun-18 11:30N 59°20' E 018°05'0 0.0
2018-Jun-18 11:00N 59°20' E 018°05'0 0.0
2018-Jun-18 10:30N 59°20' E 018°05'0 0.0
2018-Jun-18 10:00N 59°20' E 018°05'0 0.0
2018-Jun-18 09:30N 59°20' E 018°05'0 0.3
2018-Jun-18 09:00N 59°20' E 018°05'0 0.0
2018-Jun-18 08:30N 59°20' E 018°05'3 6.0
2018-Jun-18 08:00N 59°19' E 018°10'611.7
2018-Jun-18 07:30N 59°23' E 018°20'2 4.3
2018-Jun-18 07:00N 59°25' E 018°22'3 6.3
2018-Jun-18 06:29N 59°25' E 018°28'10 8.8
2018-Jun-18 05:23N 59°24' E 018°47'3 7.4
2018-Jun-18 04:59N 59°22' E 018°52'3 6.8
2018-Jun-18 04:30N 59°25' E 018°55'2 3.2
2018-Jun-18 04:00N 59°27' E 018°55'0 0.8
2018-Jun-18 03:30N 59°27' E 018°55'0 0.0
2018-Jun-18 02:58N 59°27' E 018°55'0 0.0
2018-Jun-18 02:20N 59°27' E 018°55'0 0.0
2018-Jun-18 01:48N 59°27' E 018°55'0 0.0
2018-Jun-18 01:30N 59°27' E 018°55'0 0.0
2018-Jun-18 01:00N 59°27' E 018°55'0 0.0
2018-Jun-18 00:27N 59°27' E 018°55'0 0.0
2018-Jun-17 23:52N 59°27' E 018°55'0 0.0
2018-Jun-17 23:26N 59°27' E 018°55'0 0.0
2018-Jun-17 22:58N 59°27' E 018°55'0 0.0
2018-Jun-17 22:30N 59°27' E 018°55'0 0.0
2018-Jun-17 22:00N 59°27' E 018°55'0 0.0
2018-Jun-17 21:30N 59°27' E 018°55'0 0.0
2018-Jun-17 20:51N 59°27' E 018°55'0 0.0
2018-Jun-17 20:27N 59°27' E 018°55'0 0.0
2018-Jun-17 19:56N 59°27' E 018°55'0 0.0
2018-Jun-17 19:29N 59°27' E 018°55'5 6.8
2018-Jun-17 18:46N 59°23' E 018°49'1 4.7
2018-Jun-17 18:29N 59°24' E 018°47'610.9
2018-Jun-17 17:58N 59°22' E 018°37'510.4
2018-Jun-17 17:26N 59°25' E 018°28'4 8.7
2018-Jun-17 17:01N 59°24' E 018°21'5 9.6
2018-Jun-17 16:30N 59°21' E 018°14'510.0
2018-Jun-17 16:00N 59°20' E 018°04'0 0.1
2018-Jun-17 15:30N 59°20' E 018°04'0 0.0
2018-Jun-17 15:00N 59°20' E 018°04'0 0.0
2018-Jun-17 14:30N 59°20' E 018°04'1 2.4
2018-Jun-17 14:00N 59°19' E 018°07'612.5
2018-Jun-17 13:30N 59°22' E 018°17'510.0
2018-Jun-17 13:01N 59°26' E 018°24'1211.3
2018-Jun-17 11:58N 59°24' E 018°47'2 4.5
2018-Jun-17 11:30N 59°23' E 018°50'3 5.9
2018-Jun-17 10:55N 59°25' E 018°55'0 0.4
2018-Jun-17 10:30N 59°25' E 018°55'3 6.4
2018-Jun-17 09:58N 59°23' E 018°51'2 4.7
2018-Jun-17 09:30N 59°24' E 018°47'2 4.2
2018-Jun-17 08:59N 59°23' E 018°43'3 6.9
2018-Jun-17 08:30N 59°22' E 018°37'0 0.8
2018-Jun-17 07:58N 59°23' E 018°38'4 7.8
2018-Jun-17 07:30N 59°26' E 018°40'3 5.7
2018-Jun-17 06:59N 59°28' E 018°44'4 4.9
2018-Jun-17 06:11N 59°30' E 018°51'0 0.0
2018-Jun-17 05:40N 59°30' E 018°51'0 0.0
2018-Jun-17 05:28N 59°30' E 018°51'0 0.0
2018-Jun-17 04:50N 59°30' E 018°51'0 0.0
2018-Jun-17 04:30N 59°30' E 018°51'0 0.0
2018-Jun-17 04:00N 59°30' E 018°51'0 0.0
2018-Jun-17 03:29N 59°30' E 018°51'0 0.0
2018-Jun-17 03:00N 59°30' E 018°51'0 0.0
2018-Jun-17 02:30N 59°30' E 018°51'0 0.0
2018-Jun-17 02:00N 59°30' E 018°51'0 0.0
2018-Jun-17 01:30N 59°30' E 018°51'0 0.0
2018-Jun-17 01:00N 59°30' E 018°51'0 0.0
2018-Jun-17 00:30N 59°30' E 018°51'0 0.0
2018-Jun-17 00:00N 59°30' E 018°51'0 0.0
2018-Jun-16 23:29N 59°30' E 018°51'0 0.0
2018-Jun-16 21:42N 59°30' E 018°51'0 0.0
2018-Jun-16 21:13N 59°30' E 018°51'0 0.0
2018-Jun-16 20:58N 59°30' E 018°51'0 0.0
2018-Jun-16 20:30N 59°30' E 018°51'0 0.0
2018-Jun-16 19:54N 59°30' E 018°51'0 0.0
2018-Jun-16 18:46N 59°30' E 018°51'0 0.0
2018-Jun-16 17:37N 59°30' E 018°51'110.4
2018-Jun-16 17:31N 59°29' E 018°50'5 9.7
2018-Jun-16 17:00N 59°26' E 018°42'7 5.0
2018-Jun-16 15:40N 59°25' E 018°29'1 7.6
2018-Jun-16 15:29N 59°26' E 018°26'4 7.6
2018-Jun-16 15:01N 59°23' E 018°20'4 7.4
2018-Jun-16 14:30N 59°21' E 018°15'510.7
2018-Jun-16 14:01N 59°20' E 018°05'0 0.1
2018-Jun-16 13:30N 59°20' E 018°04'0 0.0
2018-Jun-16 13:00N 59°20' E 018°04'2 4.2
2018-Jun-16 12:30N 59°19' E 018°08'612.2
2018-Jun-16 12:00N 59°22' E 018°18'3 6.2
2018-Jun-16 11:30N 59°25' E 018°21'816.3
2018-Jun-16 11:00N 59°24' E 018°37'714.8
2018-Jun-16 10:31N 59°27' E 018°50'3 5.8
2018-Jun-16 09:56N 59°25' E 018°54'2 5.4
2018-Jun-16 09:29N 59°23' E 018°51'2 4.0
2018-Jun-16 08:56N 59°24' E 018°47'3 5.4
2018-Jun-16 08:28N 59°23' E 018°42'2 4.9
2018-Jun-16 08:00N 59°23' E 018°38'6 9.9
2018-Jun-16 07:26N 59°25' E 018°28'4 8.4
2018-Jun-16 07:00N 59°24' E 018°21'5 9.3
2018-Jun-16 06:31N 59°21' E 018°15'510.7
2018-Jun-16 06:00N 59°20' E 018°04'0 0.1
2018-Jun-16 05:30N 59°20' E 018°04'0 0.0
2018-Jun-16 05:00N 59°20' E 018°04'0 0.0
2018-Jun-16 04:30N 59°20' E 018°04'0 0.0
2018-Jun-16 04:00N 59°20' E 018°04'0 0.0
2018-Jun-16 03:30N 59°20' E 018°04'0 0.0
2018-Jun-16 03:00N 59°20' E 018°04'0 0.0
2018-Jun-16 02:30N 59°20' E 018°04'0 0.0
2018-Jun-16 02:00N 59°20' E 018°04'0 0.0
2018-Jun-16 01:30N 59°20' E 018°04'0 0.0
2018-Jun-16 01:00N 59°20' E 018°04'0 0.0
2018-Jun-16 00:30N 59°20' E 018°04'0 0.0
2018-Jun-16 00:00N 59°20' E 018°04'0 0.0
2018-Jun-15 23:30N 59°20' E 018°04'0 0.0
2018-Jun-15 23:00N 59°20' E 018°04'0 0.0
2018-Jun-15 22:30N 59°20' E 018°04'0 0.0
2018-Jun-15 22:00N 59°20' E 018°04'0 0.0
2018-Jun-15 21:30N 59°20' E 018°04'0 0.0
2018-Jun-15 21:00N 59°20' E 018°04'0 0.0
2018-Jun-15 20:30N 59°20' E 018°04'0 0.0
2018-Jun-15 20:00N 59°20' E 018°04'0 0.0
2018-Jun-15 19:30N 59°20' E 018°04'4 8.4
2018-Jun-15 19:00N 59°20' E 018°13'611.8
2018-Jun-15 18:30N 59°24' E 018°21'5 9.2
2018-Jun-15 17:58N 59°25' E 018°31'4 7.6
2018-Jun-15 17:27N 59°28' E 018°37'511.2
2018-Jun-15 17:00N 59°29' E 018°46'1 1.1
2018-Jun-15 16:30N 59°29' E 018°45'4 7.6
2018-Jun-15 15:59N 59°28' E 018°38'4 6.5
2018-Jun-15 15:26N 59°25' E 018°33'4 9.1
2018-Jun-15 15:01N 59°27' E 018°27'4 8.3
2018-Jun-15 14:31N 59°24' E 018°21'5 9.2
2018-Jun-15 14:00N 59°21' E 018°15'510.7
2018-Jun-15 13:31N 59°20' E 018°05'0 0.1
2018-Jun-15 13:00N 59°20' E 018°05'0 0.0
2018-Jun-15 12:30N 59°20' E 018°05'0 0.0
2018-Jun-15 12:00N 59°20' E 018°05'0 0.0
2018-Jun-15 11:30N 59°20' E 018°05'0 0.0
2018-Jun-15 11:00N 59°20' E 018°05'0 0.0
2018-Jun-15 10:30N 59°20' E 018°05'0 0.0
2018-Jun-15 09:59N 59°20' E 018°05'0 0.0
2018-Jun-15 09:30N 59°20' E 018°05'0 0.0
2018-Jun-15 09:00N 59°20' E 018°05'0 0.0
2018-Jun-15 08:30N 59°20' E 018°05'0 0.0
2018-Jun-15 08:00N 59°20' E 018°05'0 0.0
2018-Jun-15 07:30N 59°20' E 018°05'0 0.0
2018-Jun-15 07:00N 59°20' E 018°05'0 0.0
2018-Jun-15 06:30N 59°20' E 018°05'0 0.0
2018-Jun-15 06:00N 59°20' E 018°05'3 5.7
2018-Jun-15 05:31N 59°19' E 018°10'510.9
2018-Jun-15 05:00N 59°23' E 018°19'2 4.5
2018-Jun-15 04:31N 59°24' E 018°23'0 0.9
2018-Jun-15 04:00N 59°24' E 018°23'1 2.3
2018-Jun-15 03:30N 59°24' E 018°21'0 0.0
2018-Jun-15 03:00N 59°24' E 018°21'0 0.0
2018-Jun-15 02:30N 59°24' E 018°21'0 0.0
2018-Jun-15 02:00N 59°24' E 018°21'0 0.0
2018-Jun-15 01:30N 59°24' E 018°21'0 0.0
2018-Jun-15 01:00N 59°24' E 018°21'0 0.0
2018-Jun-15 00:30N 59°24' E 018°21'0 0.0
2018-Jun-15 00:00N 59°24' E 018°21'0 0.0
2018-Jun-14 23:30N 59°24' E 018°21'0 0.0
2018-Jun-14 23:00N 59°24' E 018°21'0 0.0
2018-Jun-14 22:30N 59°24' E 018°21'0 0.0
2018-Jun-14 22:00N 59°24' E 018°21'0 0.0
2018-Jun-14 21:30N 59°24' E 018°21'0 0.0
2018-Jun-14 21:00N 59°24' E 018°21'0 0.0
2018-Jun-14 20:30N 59°24' E 018°21'0 0.0
2018-Jun-14 20:00N 59°24' E 018°21'0 0.0
2018-Jun-14 19:30N 59°24' E 018°21'0 0.0
2018-Jun-14 19:00N 59°24' E 018°21'0 0.0
2018-Jun-14 18:30N 59°24' E 018°21'0 0.0
2018-Jun-14 18:00N 59°24' E 018°21'0 0.1
2018-Jun-14 17:30N 59°24' E 018°21'1 2.4
2018-Jun-14 17:01N 59°24' E 018°23'2 3.7
2018-Jun-14 16:31N 59°23' E 018°20'5 9.5
2018-Jun-14 16:00N 59°20' E 018°12'4 8.0
2018-Jun-14 15:30N 59°20' E 018°04'0 0.1
2018-Jun-14 15:00N 59°20' E 018°04'0 0.0
2018-Jun-14 14:30N 59°20' E 018°04'0 0.0
2018-Jun-14 14:00N 59°20' E 018°04'0 0.0
2018-Jun-14 13:31N 59°20' E 018°04'0 0.0
2018-Jun-14 13:01N 59°20' E 018°04'0 0.0
2018-Jun-14 12:30N 59°20' E 018°04'0 0.0
2018-Jun-14 12:00N 59°20' E 018°04'0 0.0
2018-Jun-14 11:30N 59°20' E 018°04'0 0.0
2018-Jun-14 11:00N 59°20' E 018°04'0 0.0
2018-Jun-14 10:30N 59°20' E 018°04'0 0.0
2018-Jun-14 10:00N 59°20' E 018°04'0 0.0
2018-Jun-14 09:30N 59°20' E 018°04'0 0.0
2018-Jun-14 09:00N 59°20' E 018°04'0 0.0
2018-Jun-14 08:31N 59°20' E 018°04'1 2.8
2018-Jun-14 08:00N 59°19' E 018°07'612.1
2018-Jun-14 07:31N 59°22' E 018°17'3 6.3
2018-Jun-14 07:00N 59°24' E 018°21'3 6.8
2018-Jun-14 06:31N 59°26' E 018°28'5 9.1
2018-Jun-14 06:00N 59°23' E 018°35'5 8.1
2018-Jun-14 05:27N 59°23' E 018°44'2 5.0
2018-Jun-14 04:59N 59°23' E 018°49'5 7.9
2018-Jun-14 04:22N 59°27' E 018°56'0 0.4
2018-Jun-14 03:59N 59°27' E 018°55'0 0.0
2018-Jun-14 03:16N 59°27' E 018°55'0 0.0
2018-Jun-14 02:57N 59°27' E 018°55'0 0.0
2018-Jun-14 02:27N 59°27' E 018°55'0 0.0
2018-Jun-14 01:59N 59°27' E 018°55'0 0.0
2018-Jun-14 01:28N 59°27' E 018°55'0 0.0
2018-Jun-14 00:55N 59°27' E 018°55'0 0.0
2018-Jun-14 00:13N 59°27' E 018°55'0 0.0
2018-Jun-13 23:55N 59°27' E 018°55'0 0.0
2018-Jun-13 23:27N 59°27' E 018°55'0 0.0
2018-Jun-13 22:51N 59°27' E 018°55'0 0.0
2018-Jun-13 22:29N 59°27' E 018°55'0 0.0
2018-Jun-13 21:48N 59°27' E 018°55'0 0.0
2018-Jun-13 21:30N 59°27' E 018°55'0 0.0
2018-Jun-13 20:59N 59°27' E 018°55'0 0.0
2018-Jun-13 20:29N 59°27' E 018°55'0 0.0
2018-Jun-13 19:48N 59°27' E 018°55'0 0.0
2018-Jun-13 19:30N 59°27' E 018°55'0 0.0
2018-Jun-13 18:59N 59°27' E 018°55'0 0.0
2018-Jun-13 18:30N 59°27' E 018°55'0 0.0
2018-Jun-13 18:00N 59°27' E 018°55'0 0.0
2018-Jun-13 17:30N 59°27' E 018°55'1 1.4
2018-Jun-13 16:56N 59°26' E 018°55'4 7.4
2018-Jun-13 16:20N 59°23' E 018°49'3 5.7
2018-Jun-13 15:49N 59°23' E 018°43'1 4.3
2018-Jun-13 15:30N 59°24' E 018°42'3 5.5
2018-Jun-13 14:52N 59°22' E 018°36'0 0.0
2018-Jun-13 14:24N 59°22' E 018°36'0 0.0
2018-Jun-13 13:55N 59°22' E 018°36'3 8.4
2018-Jun-13 13:30N 59°24' E 018°42'2 4.3
2018-Jun-13 12:59N 59°24' E 018°47'4 4.8
2018-Jun-13 12:04N 59°25' E 018°55'0 3.5
2018-Jun-13 12:00N 59°25' E 018°55'1 2.4
2018-Jun-13 11:30N 59°27' E 018°55'0 0.0
2018-Jun-13 11:01N 59°27' E 018°55'2 3.2
2018-Jun-13 10:31N 59°25' E 018°55'3 6.2
2018-Jun-13 10:00N 59°23' E 018°50'2 4.5
2018-Jun-13 09:29N 59°23' E 018°46'1 2.2
2018-Jun-13 08:50N 59°23' E 018°43'4 9.5
2018-Jun-13 08:26N 59°22' E 018°36'0 0.1
2018-Jun-13 08:00N 59°22' E 018°36'0 0.0
2018-Jun-13 07:30N 59°22' E 018°36'0 0.0
2018-Jun-13 06:58N 59°22' E 018°36'0 0.0
2018-Jun-13 05:57N 59°22' E 018°36'4 8.0
2018-Jun-13 05:30N 59°26' E 018°38'2 4.1
2018-Jun-13 05:00N 59°27' E 018°42'5 9.3
2018-Jun-13 04:30N 59°29' E 018°50'1 2.6
2018-Jun-13 04:00N 59°30' E 018°51'0 0.0
2018-Jun-13 03:30N 59°30' E 018°51'0 0.0
2018-Jun-13 03:00N 59°30' E 018°51'0 0.0
2018-Jun-13 02:30N 59°30' E 018°51'0 0.0
2018-Jun-13 01:41N 59°30' E 018°51'0 0.0
2018-Jun-13 00:43N 59°30' E 018°51'0 0.0
2018-Jun-13 00:29N 59°30' E 018°51'0 0.0
2018-Jun-12 23:57N 59°30' E 018°51'0 0.0
2018-Jun-12 23:30N 59°30' E 018°51'0 0.0
2018-Jun-12 22:55N 59°30' E 018°51'0 0.0
2018-Jun-12 22:00N 59°30' E 018°51'0 0.0
2018-Jun-12 21:12N 59°30' E 018°51'0 0.0
2018-Jun-12 16:56N 59°30' E 018°51'6 9.3
2018-Jun-12 16:19N 59°26' E 018°42'2 4.5
2018-Jun-12 15:53N 59°26' E 018°38'4 9.2
2018-Jun-12 15:30N 59°22' E 018°36'510.2
2018-Jun-12 14:59N 59°25' E 018°28'4 7.6
2018-Jun-12 14:30N 59°24' E 018°21'3 6.9
2018-Jun-12 14:01N 59°22' E 018°17'611.2
2018-Jun-12 13:30N 59°19' E 018°07'2 3.0
2018-Jun-12 13:00N 59°20' E 018°05'0 0.0
2018-Jun-12 12:30N 59°20' E 018°05'0 0.0
2018-Jun-12 12:00N 59°20' E 018°05'0 0.0
2018-Jun-12 11:30N 59°20' E 018°05'0 0.0
2018-Jun-12 11:00N 59°20' E 018°05'0 0.0
2018-Jun-12 10:30N 59°20' E 018°05'0 0.0
2018-Jun-12 10:00N 59°20' E 018°05'0 0.0
2018-Jun-12 09:30N 59°20' E 018°05'0 0.0
2018-Jun-12 09:00N 59°20' E 018°05'0 0.0
2018-Jun-12 08:30N 59°20' E 018°05'0 0.0
2018-Jun-12 08:00N 59°20' E 018°05'0 0.0
2018-Jun-12 07:30N 59°20' E 018°05'0 0.0
2018-Jun-12 07:00N 59°20' E 018°05'0 0.0
2018-Jun-12 06:30N 59°20' E 018°05'0 0.0
2018-Jun-12 06:00N 59°20' E 018°05'0 0.0
2018-Jun-12 05:30N 59°20' E 018°05'0 0.0
2018-Jun-12 05:00N 59°20' E 018°05'0 0.0
2018-Jun-12 04:30N 59°20' E 018°05'0 0.0
2018-Jun-12 04:00N 59°20' E 018°05'0 0.0
2018-Jun-12 03:30N 59°20' E 018°05'0 0.0
2018-Jun-12 03:00N 59°20' E 018°05'0 0.0
2018-Jun-12 02:30N 59°20' E 018°05'0 0.0
2018-Jun-12 02:00N 59°20' E 018°05'0 0.0
2018-Jun-12 01:30N 59°20' E 018°05'0 0.0
2018-Jun-12 01:00N 59°20' E 018°05'0 0.0
2018-Jun-12 00:30N 59°20' E 018°05'0 0.0
2018-Jun-12 00:00N 59°20' E 018°05'0 0.0
2018-Jun-11 23:30N 59°20' E 018°05'0 0.0
2018-Jun-11 23:00N 59°20' E 018°05'0 0.0
2018-Jun-11 22:30N 59°20' E 018°05'0 0.0
2018-Jun-11 22:00N 59°20' E 018°05'0 0.0
2018-Jun-11 21:30N 59°20' E 018°05'0 0.0
2018-Jun-11 21:00N 59°20' E 018°05'0 0.0
2018-Jun-11 20:30N 59°20' E 018°05'0 0.0
2018-Jun-11 20:00N 59°20' E 018°05'0 0.0
2018-Jun-11 19:30N 59°20' E 018°05'0 0.0
2018-Jun-11 19:00N 59°20' E 018°05'0 0.0
2018-Jun-11 18:31N 59°20' E 018°05'0 0.0
2018-Jun-11 18:00N 59°20' E 018°05'0 0.0
2018-Jun-11 17:30N 59°20' E 018°05'0 0.0
2018-Jun-11 17:00N 59°20' E 018°05'0 0.0
2018-Jun-11 16:31N 59°20' E 018°05'0 0.0
2018-Jun-11 16:00N 59°20' E 018°05'0 0.0
2018-Jun-11 15:30N 59°20' E 018°05'0 0.0
2018-Jun-11 15:00N 59°20' E 018°05'0 0.0
2018-Jun-11 14:30N 59°20' E 018°05'0 0.0
2018-Jun-11 14:01N 59°20' E 018°05'0 0.0
2018-Jun-11 13:30N 59°20' E 018°05'0 0.0
2018-Jun-11 13:00N 59°20' E 018°05'0 0.0
2018-Jun-11 12:30N 59°20' E 018°05'0 0.0
2018-Jun-11 12:00N 59°20' E 018°05'0 0.0
2018-Jun-11 11:30N 59°20' E 018°05'0 0.0
2018-Jun-11 11:00N 59°20' E 018°05'0 0.0
2018-Jun-11 10:30N 59°20' E 018°05'0 0.0
2018-Jun-11 10:01N 59°20' E 018°05'0 0.0
2018-Jun-11 09:30N 59°20' E 018°05'0 0.0
2018-Jun-11 09:00N 59°20' E 018°05'0 0.0
2018-Jun-11 08:30N 59°20' E 018°05'2 4.7
2018-Jun-11 08:00N 59°19' E 018°09'611.9
2018-Jun-11 07:30N 59°23' E 018°19'3 5.7
2018-Jun-11 07:00N 59°25' E 018°22'3 6.5
2018-Jun-11 06:30N 59°25' E 018°28'610.9
2018-Jun-11 06:00N 59°22' E 018°37'5 8.8
2018-Jun-11 05:29N 59°23' E 018°46'4 4.8
2018-Jun-11 04:43N 59°24' E 018°53'2 7.4
2018-Jun-11 04:30N 59°25' E 018°55'2 3.2
2018-Jun-11 04:01N 59°27' E 018°56'0 0.8
2018-Jun-11 03:30N 59°27' E 018°55'0 0.0
2018-Jun-11 03:00N 59°27' E 018°55'0 0.0
2018-Jun-11 02:30N 59°27' E 018°55'0 0.0
2018-Jun-11 02:01N 59°27' E 018°55'0 0.0
2018-Jun-11 01:30N 59°27' E 018°55'0 0.0
2018-Jun-11 01:00N 59°27' E 018°55'0 0.0
2018-Jun-11 00:31N 59°27' E 018°55'0 0.0
2018-Jun-11 00:00N 59°27' E 018°55'0 0.0
2018-Jun-10 23:31N 59°27' E 018°55'0 0.0
2018-Jun-10 23:00N 59°27' E 018°55'0 0.0
2018-Jun-10 22:30N 59°27' E 018°55'0 0.0
2018-Jun-10 22:00N 59°27' E 018°55'0 0.0
2018-Jun-10 21:30N 59°27' E 018°55'0 0.0
2018-Jun-10 21:00N 59°27' E 018°55'0 0.0
2018-Jun-10 20:30N 59°27' E 018°55'0 0.0
2018-Jun-10 19:59N 59°27' E 018°55'0 0.0
2018-Jun-10 19:30N 59°27' E 018°55'0 0.0
2018-Jun-10 19:00N 59°27' E 018°55'3 4.2
2018-Jun-10 18:22N 59°25' E 018°51'515.2
2018-Jun-10 18:00N 59°23' E 018°42'713.1
2018-Jun-10 17:28N 59°25' E 018°29'4 8.8
2018-Jun-10 17:00N 59°24' E 018°21'5 9.3
2018-Jun-10 16:30N 59°21' E 018°15'510.7
2018-Jun-10 16:01N 59°20' E 018°04'0 0.1
2018-Jun-10 15:30N 59°20' E 018°04'0 0.0
2018-Jun-10 15:00N 59°20' E 018°04'1 0.8
2018-Jun-10 14:00N 59°19' E 018°06'713.3
2018-Jun-10 13:30N 59°22' E 018°17'5 9.3
2018-Jun-10 13:00N 59°26' E 018°24'815.2
2018-Jun-10 12:28N 59°23' E 018°39'4 7.8
2018-Jun-10 12:00N 59°23' E 018°46'2 3.6
2018-Jun-10 11:30N 59°23' E 018°50'3 5.5
2018-Jun-10 11:00N 59°25' E 018°54'1 3.0
2018-Jun-10 10:31N 59°26' E 018°55'4 7.3
2018-Jun-10 10:00N 59°22' E 018°53'3 6.0
2018-Jun-10 09:27N 59°23' E 018°46'1 3.3
2018-Jun-10 09:00N 59°23' E 018°43'4 6.2
2018-Jun-10 08:25N 59°22' E 018°36'1 1.9
2018-Jun-10 07:59N 59°23' E 018°37'3 6.0
2018-Jun-10 07:30N 59°25' E 018°41'  
Track history (hours):
 
Tides and Currents Weather Stations Pressure Air Temp Water Temp Dewpoint Dewpoint Depression Visibility Wind Speed Wind Dir Waves Ship Positions

Vano

Last reported at 2018-Jun-20 07:30 UTC. Time now 2018-Jun-20 07:45 UTC.
Position N 59°22' E 018°36'.

Length 38 m; draft 2.5 m.

Type: Passenger vessel. MMSI: 265520400.

Date/timePositionNaut miles runAvg speedWind from/ knotsBaromVisibWave heightAir tempDewpointWater temp
2018-Jun-20 07:30N 59°22' E 018°36'0 0.0
2018-Jun-20 06:59N 59°22' E 018°36'0 0.0
2018-Jun-20 06:19N 59°22' E 018°36'0 0.1
2018-Jun-20 06:00N 59°22' E 018°36'4 7.9
2018-Jun-20 05:29N 59°26' E 018°40'3 5.5
2018-Jun-20 04:59N 59°27' E 018°45'3 6.9
2018-Jun-20 04:30N 59°29' E 018°50'1 1.3
2018-Jun-20 03:44N 59°30' E 018°51'0 0.0
2018-Jun-20 03:22N 59°30' E 018°51'0 0.0
2018-Jun-20 02:42N 59°30' E 018°51'0 0.0
2018-Jun-20 02:25N 59°30' E 018°51'0 0.0
2018-Jun-20 01:50N 59°30' E 018°51'0 0.0
2018-Jun-20 00:14N 59°30' E 018°51'0 0.0
2018-Jun-19 22:40N 59°30' E 018°51'0 0.0
2018-Jun-19 19:08N 59°30' E 018°51'0 0.0
2018-Jun-19 18:27N 59°30' E 018°51'0 0.0
2018-Jun-19 17:53N 59°30' E 018°51'0 0.0
2018-Jun-19 17:26N 59°30' E 018°51'0 0.0
2018-Jun-19 16:58N 59°30' E 018°51'4 8.7
2018-Jun-19 16:30N 59°28' E 018°44'3 6.3
2018-Jun-19 16:00N 59°25' E 018°40'3 6.6
2018-Jun-19 15:30N 59°22' E 018°37'5 8.6
2018-Jun-19 14:56N 59°25' E 018°30'2 5.6
2018-Jun-19 14:30N 59°26' E 018°25'3 5.9
2018-Jun-19 14:00N 59°24' E 018°21'4 8.1
2018-Jun-19 13:30N 59°21' E 018°15'510.7
2018-Jun-19 13:00N 59°20' E 018°05'0 0.1
2018-Jun-19 12:30N 59°20' E 018°05'0 0.0
2018-Jun-19 12:00N 59°20' E 018°05'0 0.0
2018-Jun-19 11:30N 59°20' E 018°05'0 0.0
2018-Jun-19 11:01N 59°20' E 018°05'0 0.0
2018-Jun-19 10:31N 59°20' E 018°05'0 0.0
2018-Jun-19 10:01N 59°20' E 018°05'0 0.0
2018-Jun-19 09:30N 59°20' E 018°05'0 0.0
2018-Jun-19 09:00N 59°20' E 018°05'0 0.0
2018-Jun-19 08:31N 59°20' E 018°05'0 0.0
2018-Jun-19 08:00N 59°20' E 018°05'0 0.0
2018-Jun-19 07:31N 59°20' E 018°05'0 0.0
2018-Jun-19 07:00N 59°20' E 018°05'0 0.0
2018-Jun-19 06:31N 59°20' E 018°05'0 0.0
2018-Jun-19 06:01N 59°20' E 018°05'0 0.0
2018-Jun-19 05:30N 59°20' E 018°05'0 0.0
2018-Jun-19 05:01N 59°20' E 018°05'0 0.0
2018-Jun-19 04:30N 59°20' E 018°05'0 0.0
2018-Jun-19 04:01N 59°20' E 018°05'0 0.0
2018-Jun-19 03:30N 59°20' E 018°05'0 0.0
2018-Jun-19 03:00N 59°20' E 018°05'0 0.0
2018-Jun-19 02:30N 59°20' E 018°05'0 0.0
2018-Jun-19 02:01N 59°20' E 018°05'0 0.0
2018-Jun-19 01:30N 59°20' E 018°05'0 0.0
2018-Jun-19 01:00N 59°20' E 018°05'0 0.0
2018-Jun-19 00:30N 59°20' E 018°05'0 0.0
2018-Jun-19 00:00N 59°20' E 018°05'0 0.0
2018-Jun-18 23:30N 59°20' E 018°05'0 0.0
2018-Jun-18 23:00N 59°20' E 018°05'0 0.0
2018-Jun-18 22:30N 59°20' E 018°05'0 0.0
2018-Jun-18 22:00N 59°20' E 018°05'0 0.0
2018-Jun-18 21:30N 59°20' E 018°05'0 0.0
2018-Jun-18 21:00N 59°20' E 018°05'0 0.0
2018-Jun-18 20:30N 59°20' E 018°05'0 0.0
2018-Jun-18 20:00N 59°20' E 018°05'0 0.0
2018-Jun-18 19:30N 59°20' E 018°05'0 0.0
2018-Jun-18 19:00N 59°20' E 018°05'0 0.0
2018-Jun-18 18:30N 59°20' E 018°05'0 0.0
2018-Jun-18 18:00N 59°20' E 018°05'0 0.0
2018-Jun-18 17:30N 59°20' E 018°05'0 0.0
2018-Jun-18 17:00N 59°20' E 018°05'0 0.0
2018-Jun-18 16:30N 59°20' E 018°05'0 0.0
2018-Jun-18 16:00N 59°20' E 018°05'0 0.0
2018-Jun-18 15:30N 59°20' E 018°05'0 0.0
2018-Jun-18 15:00N 59°20' E 018°05'1 1.2
2018-Jun-18 14:30N 59°19' E 018°06'1 1.0
2018-Jun-18 14:00N 59°20' E 018°05'0 0.0
2018-Jun-18 13:30N 59°20' E 018°05'0 0.0
2018-Jun-18 13:00N 59°20' E 018°05'0 0.0
2018-Jun-18 12:30N 59°20' E 018°05'0 0.0
2018-Jun-18 12:00N 59°20' E 018°05'0 0.0
2018-Jun-18 11:30N 59°20' E 018°05'0 0.0
2018-Jun-18 11:00N 59°20' E 018°05'0 0.0
2018-Jun-18 10:30N 59°20' E 018°05'0 0.0
2018-Jun-18 10:00N 59°20' E 018°05'0 0.0
2018-Jun-18 09:30N 59°20' E 018°05'0 0.3
2018-Jun-18 09:00N 59°20' E 018°05'0 0.0
2018-Jun-18 08:30N 59°20' E 018°05'3 6.0
2018-Jun-18 08:00N 59°19' E 018°10'611.7
2018-Jun-18 07:30N 59°23' E 018°20'2 4.3
2018-Jun-18 07:00N 59°25' E 018°22'3 6.3
2018-Jun-18 06:29N 59°25' E 018°28'10 8.8
2018-Jun-18 05:23N 59°24' E 018°47'3 7.4
2018-Jun-18 04:59N 59°22' E 018°52'3 6.8
2018-Jun-18 04:30N 59°25' E 018°55'2 3.2
2018-Jun-18 04:00N 59°27' E 018°55'0 0.8
2018-Jun-18 03:30N 59°27' E 018°55'0 0.0
2018-Jun-18 02:58N 59°27' E 018°55'0 0.0
2018-Jun-18 02:20N 59°27' E 018°55'0 0.0
2018-Jun-18 01:48N 59°27' E 018°55'0 0.0
2018-Jun-18 01:30N 59°27' E 018°55'0 0.0
2018-Jun-18 01:00N 59°27' E 018°55'0 0.0
2018-Jun-18 00:27N 59°27' E 018°55'0 0.0
2018-Jun-17 23:52N 59°27' E 018°55'0 0.0
2018-Jun-17 23:26N 59°27' E 018°55'0 0.0
2018-Jun-17 22:58N 59°27' E 018°55'0 0.0
2018-Jun-17 22:30N 59°27' E 018°55'0 0.0
2018-Jun-17 22:00N 59°27' E 018°55'0 0.0
2018-Jun-17 21:30N 59°27' E 018°55'0 0.0
2018-Jun-17 20:51N 59°27' E 018°55'0 0.0
2018-Jun-17 20:27N 59°27' E 018°55'0 0.0
2018-Jun-17 19:56N 59°27' E 018°55'0 0.0
2018-Jun-17 19:29N 59°27' E 018°55'5 6.8
2018-Jun-17 18:46N 59°23' E 018°49'1 4.7
2018-Jun-17 18:29N 59°24' E 018°47'610.9
2018-Jun-17 17:58N 59°22' E 018°37'510.4
2018-Jun-17 17:26N 59°25' E 018°28'4 8.7
2018-Jun-17 17:01N 59°24' E 018°21'5 9.6
2018-Jun-17 16:30N 59°21' E 018°14'510.0
2018-Jun-17 16:00N 59°20' E 018°04'0 0.1
2018-Jun-17 15:30N 59°20' E 018°04'0 0.0
2018-Jun-17 15:00N 59°20' E 018°04'0 0.0
2018-Jun-17 14:30N 59°20' E 018°04'1 2.4
2018-Jun-17 14:00N 59°19' E 018°07'612.5
2018-Jun-17 13:30N 59°22' E 018°17'510.0
2018-Jun-17 13:01N 59°26' E 018°24'1211.3
2018-Jun-17 11:58N 59°24' E 018°47'2 4.5
2018-Jun-17 11:30N 59°23' E 018°50'3 5.9
2018-Jun-17 10:55N 59°25' E 018°55'0 0.4
2018-Jun-17 10:30N 59°25' E 018°55'3 6.4
2018-Jun-17 09:58N 59°23' E 018°51'2 4.7
2018-Jun-17 09:30N 59°24' E 018°47'2 4.2
2018-Jun-17 08:59N 59°23' E 018°43'3 6.9
2018-Jun-17 08:30N 59°22' E 018°37'0 0.8
2018-Jun-17 07:58N 59°23' E 018°38'4 7.8
2018-Jun-17 07:30N 59°26' E 018°40'3 5.7
2018-Jun-17 06:59N 59°28' E 018°44'4 4.9
2018-Jun-17 06:11N 59°30' E 018°51'0 0.0
2018-Jun-17 05:40N 59°30' E 018°51'0 0.0
2018-Jun-17 05:28N 59°30' E 018°51'0 0.0
2018-Jun-17 04:50N 59°30' E 018°51'0 0.0
2018-Jun-17 04:30N 59°30' E 018°51'0 0.0
2018-Jun-17 04:00N 59°30' E 018°51'0 0.0
2018-Jun-17 03:29N 59°30' E 018°51'0 0.0
2018-Jun-17 03:00N 59°30' E 018°51'0 0.0
2018-Jun-17 02:30N 59°30' E 018°51'0 0.0
2018-Jun-17 02:00N 59°30' E 018°51'0 0.0
2018-Jun-17 01:30N 59°30' E 018°51'0 0.0
2018-Jun-17 01:00N 59°30' E 018°51'0 0.0
2018-Jun-17 00:30N 59°30' E 018°51'0 0.0
2018-Jun-17 00:00N 59°30' E 018°51'0 0.0
2018-Jun-16 23:29N 59°30' E 018°51'0 0.0
2018-Jun-16 21:42N 59°30' E 018°51'0 0.0
2018-Jun-16 21:13N 59°30' E 018°51'0 0.0
2018-Jun-16 20:58N 59°30' E 018°51'0 0.0
2018-Jun-16 20:30N 59°30' E 018°51'0 0.0
2018-Jun-16 19:54N 59°30' E 018°51'0 0.0
2018-Jun-16 18:46N 59°30' E 018°51'0 0.0
2018-Jun-16 17:37N 59°30' E 018°51'110.4
2018-Jun-16 17:31N 59°29' E 018°50'5 9.7
2018-Jun-16 17:00N 59°26' E 018°42'7 5.0
2018-Jun-16 15:40N 59°25' E 018°29'1 7.6
2018-Jun-16 15:29N 59°26' E 018°26'4 7.6
2018-Jun-16 15:01N 59°23' E 018°20'4 7.4
2018-Jun-16 14:30N 59°21' E 018°15'510.7
2018-Jun-16 14:01N 59°20' E 018°05'0 0.1
2018-Jun-16 13:30N 59°20' E 018°04'0 0.0
2018-Jun-16 13:00N 59°20' E 018°04'2 4.2
2018-Jun-16 12:30N 59°19' E 018°08'612.2
2018-Jun-16 12:00N 59°22' E 018°18'3 6.2
2018-Jun-16 11:30N 59°25' E 018°21'816.3
2018-Jun-16 11:00N 59°24' E 018°37'714.8
2018-Jun-16 10:31N 59°27' E 018°50'3 5.8
2018-Jun-16 09:56N 59°25' E 018°54'2 5.4
2018-Jun-16 09:29N 59°23' E 018°51'2 4.0
2018-Jun-16 08:56N 59°24' E 018°47'3 5.4
2018-Jun-16 08:28N 59°23' E 018°42'2 4.9
2018-Jun-16 08:00N 59°23' E 018°38'6 9.9
2018-Jun-16 07:26N 59°25' E 018°28'4 8.4
2018-Jun-16 07:00N 59°24' E 018°21'5 9.3
2018-Jun-16 06:31N 59°21' E 018°15'510.7
2018-Jun-16 06:00N 59°20' E 018°04'0 0.1
2018-Jun-16 05:30N 59°20' E 018°04'0 0.0
2018-Jun-16 05:00N 59°20' E 018°04'0 0.0
2018-Jun-16 04:30N 59°20' E 018°04'0 0.0
2018-Jun-16 04:00N 59°20' E 018°04'0 0.0
2018-Jun-16 03:30N 59°20' E 018°04'0 0.0
2018-Jun-16 03:00N 59°20' E 018°04'0 0.0
2018-Jun-16 02:30N 59°20' E 018°04'0 0.0
2018-Jun-16 02:00N 59°20' E 018°04'0 0.0
2018-Jun-16 01:30N 59°20' E 018°04'0 0.0
2018-Jun-16 01:00N 59°20' E 018°04'0 0.0
2018-Jun-16 00:30N 59°20' E 018°04'0 0.0
2018-Jun-16 00:00N 59°20' E 018°04'0 0.0
2018-Jun-15 23:30N 59°20' E 018°04'0 0.0
2018-Jun-15 23:00N 59°20' E 018°04'0 0.0
2018-Jun-15 22:30N 59°20' E 018°04'0 0.0
2018-Jun-15 22:00N 59°20' E 018°04'0 0.0
2018-Jun-15 21:30N 59°20' E 018°04'0 0.0
2018-Jun-15 21:00N 59°20' E 018°04'0 0.0
2018-Jun-15 20:30N 59°20' E 018°04'0 0.0
2018-Jun-15 20:00N 59°20' E 018°04'0 0.0
2018-Jun-15 19:30N 59°20' E 018°04'4 8.4
2018-Jun-15 19:00N 59°20' E 018°13'611.8
2018-Jun-15 18:30N 59°24' E 018°21'5 9.2
2018-Jun-15 17:58N 59°25' E 018°31'4 7.6
2018-Jun-15 17:27N 59°28' E 018°37'511.2
2018-Jun-15 17:00N 59°29' E 018°46'1 1.1
2018-Jun-15 16:30N 59°29' E 018°45'4 7.6
2018-Jun-15 15:59N 59°28' E 018°38'4 6.5
2018-Jun-15 15:26N 59°25' E 018°33'4 9.1
2018-Jun-15 15:01N 59°27' E 018°27'4 8.3
2018-Jun-15 14:31N 59°24' E 018°21'5 9.2
2018-Jun-15 14:00N 59°21' E 018°15'510.7
2018-Jun-15 13:31N 59°20' E 018°05'0 0.1
2018-Jun-15 13:00N 59°20' E 018°05'0 0.0
2018-Jun-15 12:30N 59°20' E 018°05'0 0.0
2018-Jun-15 12:00N 59°20' E 018°05'0 0.0
2018-Jun-15 11:30N 59°20' E 018°05'0 0.0
2018-Jun-15 11:00N 59°20' E 018°05'0 0.0
2018-Jun-15 10:30N 59°20' E 018°05'0 0.0
2018-Jun-15 09:59N 59°20' E 018°05'0 0.0
2018-Jun-15 09:30N 59°20' E 018°05'0 0.0
2018-Jun-15 09:00N 59°20' E 018°05'0 0.0
2018-Jun-15 08:30N 59°20' E 018°05'0 0.0
2018-Jun-15 08:00N 59°20' E 018°05'0 0.0
2018-Jun-15 07:30N 59°20' E 018°05'0 0.0
2018-Jun-15 07:00N 59°20' E 018°05'0 0.0
2018-Jun-15 06:30N 59°20' E 018°05'0 0.0
2018-Jun-15 06:00N 59°20' E 018°05'3 5.7
2018-Jun-15 05:31N 59°19' E 018°10'510.9
2018-Jun-15 05:00N 59°23' E 018°19'2 4.5
2018-Jun-15 04:31N 59°24' E 018°23'0 0.9
2018-Jun-15 04:00N 59°24' E 018°23'1 2.3
2018-Jun-15 03:30N 59°24' E 018°21'0 0.0
2018-Jun-15 03:00N 59°24' E 018°21'0 0.0
2018-Jun-15 02:30N 59°24' E 018°21'0 0.0
2018-Jun-15 02:00N 59°24' E 018°21'0 0.0
2018-Jun-15 01:30N 59°24' E 018°21'0 0.0
2018-Jun-15 01:00N 59°24' E 018°21'0 0.0
2018-Jun-15 00:30N 59°24' E 018°21'0 0.0
2018-Jun-15 00:00N 59°24' E 018°21'0 0.0
2018-Jun-14 23:30N 59°24' E 018°21'0 0.0
2018-Jun-14 23:00N 59°24' E 018°21'0 0.0
2018-Jun-14 22:30N 59°24' E 018°21'0 0.0
2018-Jun-14 22:00N 59°24' E 018°21'0 0.0
2018-Jun-14 21:30N 59°24' E 018°21'0 0.0
2018-Jun-14 21:00N 59°24' E 018°21'0 0.0
2018-Jun-14 20:30N 59°24' E 018°21'0 0.0
2018-Jun-14 20:00N 59°24' E 018°21'0 0.0
2018-Jun-14 19:30N 59°24' E 018°21'0 0.0
2018-Jun-14 19:00N 59°24' E 018°21'0 0.0
2018-Jun-14 18:30N 59°24' E 018°21'0 0.0
2018-Jun-14 18:00N 59°24' E 018°21'0 0.1
2018-Jun-14 17:30N 59°24' E 018°21'1 2.4
2018-Jun-14 17:01N 59°24' E 018°23'2 3.7
2018-Jun-14 16:31N 59°23' E 018°20'5 9.5
2018-Jun-14 16:00N 59°20' E 018°12'4 8.0
2018-Jun-14 15:30N 59°20' E 018°04'0 0.1
2018-Jun-14 15:00N 59°20' E 018°04'0 0.0
2018-Jun-14 14:30N 59°20' E 018°04'0 0.0
2018-Jun-14 14:00N 59°20' E 018°04'0 0.0
2018-Jun-14 13:31N 59°20' E 018°04'0 0.0
2018-Jun-14 13:01N 59°20' E 018°04'0 0.0
2018-Jun-14 12:30N 59°20' E 018°04'0 0.0
2018-Jun-14 12:00N 59°20' E 018°04'0 0.0
2018-Jun-14 11:30N 59°20' E 018°04'0 0.0
2018-Jun-14 11:00N 59°20' E 018°04'0 0.0
2018-Jun-14 10:30N 59°20' E 018°04'0 0.0
2018-Jun-14 10:00N 59°20' E 018°04'0 0.0
2018-Jun-14 09:30N 59°20' E 018°04'0 0.0
2018-Jun-14 09:00N 59°20' E 018°04'0 0.0
2018-Jun-14 08:31N 59°20' E 018°04'1 2.8
2018-Jun-14 08:00N 59°19' E 018°07'612.1
2018-Jun-14 07:31N 59°22' E 018°17'3 6.3
2018-Jun-14 07:00N 59°24' E 018°21'3 6.8
2018-Jun-14 06:31N 59°26' E 018°28'5 9.1
2018-Jun-14 06:00N 59°23' E 018°35'5 8.1
2018-Jun-14 05:27N 59°23' E 018°44'2 5.0
2018-Jun-14 04:59N 59°23' E 018°49'5 7.9
2018-Jun-14 04:22N 59°27' E 018°56'0 0.4
2018-Jun-14 03:59N 59°27' E 018°55'0 0.0
2018-Jun-14 03:16N 59°27' E 018°55'0 0.0
2018-Jun-14 02:57N 59°27' E 018°55'0 0.0
2018-Jun-14 02:27N 59°27' E 018°55'0 0.0
2018-Jun-14 01:59N 59°27' E 018°55'0 0.0
2018-Jun-14 01:28N 59°27' E 018°55'0 0.0
2018-Jun-14 00:55N 59°27' E 018°55'0 0.0
2018-Jun-14 00:13N 59°27' E 018°55'0 0.0
2018-Jun-13 23:55N 59°27' E 018°55'0 0.0
2018-Jun-13 23:27N 59°27' E 018°55'0 0.0
2018-Jun-13 22:51N 59°27' E 018°55'0 0.0
2018-Jun-13 22:29N 59°27' E 018°55'0 0.0
2018-Jun-13 21:48N 59°27' E 018°55'0 0.0
2018-Jun-13 21:30N 59°27' E 018°55'0 0.0
2018-Jun-13 20:59N 59°27' E 018°55'0 0.0
2018-Jun-13 20:29N 59°27' E 018°55'0 0.0
2018-Jun-13 19:48N 59°27' E 018°55'0 0.0
2018-Jun-13 19:30N 59°27' E 018°55'0 0.0
2018-Jun-13 18:59N 59°27' E 018°55'0 0.0
2018-Jun-13 18:30N 59°27' E 018°55'0 0.0
2018-Jun-13 18:00N 59°27' E 018°55'0 0.0
2018-Jun-13 17:30N 59°27' E 018°55'1 1.4
2018-Jun-13 16:56N 59°26' E 018°55'4 7.4
2018-Jun-13 16:20N 59°23' E 018°49'3 5.7
2018-Jun-13 15:49N 59°23' E 018°43'1 4.3
2018-Jun-13 15:30N 59°24' E 018°42'3 5.5
2018-Jun-13 14:52N 59°22' E 018°36'0 0.0
2018-Jun-13 14:24N 59°22' E 018°36'0 0.0
2018-Jun-13 13:55N 59°22' E 018°36'3 8.4
2018-Jun-13 13:30N 59°24' E 018°42'2 4.3
2018-Jun-13 12:59N 59°24' E 018°47'4 4.8
2018-Jun-13 12:04N 59°25' E 018°55'0 3.5
2018-Jun-13 12:00N 59°25' E 018°55'1 2.4
2018-Jun-13 11:30N 59°27' E 018°55'0 0.0
2018-Jun-13 11:01N 59°27' E 018°55'2 3.2
2018-Jun-13 10:31N 59°25' E 018°55'3 6.2
2018-Jun-13 10:00N 59°23' E 018°50'2 4.5
2018-Jun-13 09:29N 59°23' E 018°46'1 2.2
2018-Jun-13 08:50N 59°23' E 018°43'4 9.5
2018-Jun-13 08:26N 59°22' E 018°36'0 0.1
2018-Jun-13 08:00N 59°22' E 018°36'0 0.0
2018-Jun-13 07:30N 59°22' E 018°36'0 0.0
2018-Jun-13 06:58N 59°22' E 018°36'0 0.0
2018-Jun-13 05:57N 59°22' E 018°36'4 8.0
2018-Jun-13 05:30N 59°26' E 018°38'2 4.1
2018-Jun-13 05:00N 59°27' E 018°42'5 9.3
2018-Jun-13 04:30N 59°29' E 018°50'1 2.6
2018-Jun-13 04:00N 59°30' E 018°51'0 0.0
2018-Jun-13 03:30N 59°30' E 018°51'0 0.0
2018-Jun-13 03:00N 59°30' E 018°51'0 0.0
2018-Jun-13 02:30N 59°30' E 018°51'0 0.0
2018-Jun-13 01:41N 59°30' E 018°51'0 0.0
2018-Jun-13 00:43N 59°30' E 018°51'0 0.0
2018-Jun-13 00:29N 59°30' E 018°51'0 0.0
2018-Jun-12 23:57N 59°30' E 018°51'0 0.0
2018-Jun-12 23:30N 59°30' E 018°51'0 0.0
2018-Jun-12 22:55N 59°30' E 018°51'0 0.0
2018-Jun-12 22:00N 59°30' E 018°51'0 0.0
2018-Jun-12 21:12N 59°30' E 018°51'0 0.0
2018-Jun-12 16:56N 59°30' E 018°51'6 9.3
2018-Jun-12 16:19N 59°26' E 018°42'2 4.5
2018-Jun-12 15:53N 59°26' E 018°38'4 9.2
2018-Jun-12 15:30N 59°22' E 018°36'510.2
2018-Jun-12 14:59N 59°25' E 018°28'4 7.6
2018-Jun-12 14:30N 59°24' E 018°21'3 6.9
2018-Jun-12 14:01N 59°22' E 018°17'611.2
2018-Jun-12 13:30N 59°19' E 018°07'2 3.0
2018-Jun-12 13:00N 59°20' E 018°05'0 0.0
2018-Jun-12 12:30N 59°20' E 018°05'0 0.0
2018-Jun-12 12:00N 59°20' E 018°05'0 0.0
2018-Jun-12 11:30N 59°20' E 018°05'0 0.0
2018-Jun-12 11:00N 59°20' E 018°05'0 0.0
2018-Jun-12 10:30N 59°20' E 018°05'0 0.0
2018-Jun-12 10:00N 59°20' E 018°05'0 0.0
2018-Jun-12 09:30N 59°20' E 018°05'0 0.0
2018-Jun-12 09:00N 59°20' E 018°05'0 0.0
2018-Jun-12 08:30N 59°20' E 018°05'0 0.0
2018-Jun-12 08:00N 59°20' E 018°05'0 0.0
2018-Jun-12 07:30N 59°20' E 018°05'0 0.0
2018-Jun-12 07:00N 59°20' E 018°05'0 0.0
2018-Jun-12 06:30N 59°20' E 018°05'0 0.0
2018-Jun-12 06:00N 59°20' E 018°05'0 0.0
2018-Jun-12 05:30N 59°20' E 018°05'0 0.0
2018-Jun-12 05:00N 59°20' E 018°05'0 0.0
2018-Jun-12 04:30N 59°20' E 018°05'0 0.0
2018-Jun-12 04:00N 59°20' E 018°05'0 0.0
2018-Jun-12 03:30N 59°20' E 018°05'0 0.0
2018-Jun-12 03:00N 59°20' E 018°05'0 0.0
2018-Jun-12 02:30N 59°20' E 018°05'0 0.0
2018-Jun-12 02:00N 59°20' E 018°05'0 0.0
2018-Jun-12 01:30N 59°20' E 018°05'0 0.0
2018-Jun-12 01:00N 59°20' E 018°05'0 0.0
2018-Jun-12 00:30N 59°20' E 018°05'0 0.0
2018-Jun-12 00:00N 59°20' E 018°05'0 0.0
2018-Jun-11 23:30N 59°20' E 018°05'0 0.0
2018-Jun-11 23:00N 59°20' E 018°05'0 0.0
2018-Jun-11 22:30N 59°20' E 018°05'0 0.0
2018-Jun-11 22:00N 59°20' E 018°05'0 0.0
2018-Jun-11 21:30N 59°20' E 018°05'0 0.0
2018-Jun-11 21:00N 59°20' E 018°05'0 0.0
2018-Jun-11 20:30N 59°20' E 018°05'0 0.0
2018-Jun-11 20:00N 59°20' E 018°05'0 0.0
2018-Jun-11 19:30N 59°20' E 018°05'0 0.0
2018-Jun-11 19:00N 59°20' E 018°05'0 0.0
2018-Jun-11 18:31N 59°20' E 018°05'0 0.0
2018-Jun-11 18:00N 59°20' E 018°05'0 0.0
2018-Jun-11 17:30N 59°20' E 018°05'0 0.0
2018-Jun-11 17:00N 59°20' E 018°05'0 0.0
2018-Jun-11 16:31N 59°20' E 018°05'0 0.0
2018-Jun-11 16:00N 59°20' E 018°05'0 0.0
2018-Jun-11 15:30N 59°20' E 018°05'0 0.0
2018-Jun-11 15:00N 59°20' E 018°05'0 0.0
2018-Jun-11 14:30N 59°20' E 018°05'0 0.0
2018-Jun-11 14:01N 59°20' E 018°05'0 0.0
2018-Jun-11 13:30N 59°20' E 018°05'0 0.0
2018-Jun-11 13:00N 59°20' E 018°05'0 0.0
2018-Jun-11 12:30N 59°20' E 018°05'0 0.0
2018-Jun-11 12:00N 59°20' E 018°05'0 0.0
2018-Jun-11 11:30N 59°20' E 018°05'0 0.0
2018-Jun-11 11:00N 59°20' E 018°05'0 0.0
2018-Jun-11 10:30N 59°20' E 018°05'0 0.0
2018-Jun-11 10:01N 59°20' E 018°05'0 0.0
2018-Jun-11 09:30N 59°20' E 018°05'0 0.0
2018-Jun-11 09:00N 59°20' E 018°05'0 0.0
2018-Jun-11 08:30N 59°20' E 018°05'2 4.7
2018-Jun-11 08:00N 59°19' E 018°09'611.9
2018-Jun-11 07:30N 59°23' E 018°19'3 5.7
2018-Jun-11 07:00N 59°25' E 018°22'3 6.5
2018-Jun-11 06:30N 59°25' E 018°28'610.9
2018-Jun-11 06:00N 59°22' E 018°37'5 8.8
2018-Jun-11 05:29N 59°23' E 018°46'4 4.8
2018-Jun-11 04:43N 59°24' E 018°53'2 7.4
2018-Jun-11 04:30N 59°25' E 018°55'2 3.2
2018-Jun-11 04:01N 59°27' E 018°56'0 0.8
2018-Jun-11 03:30N 59°27' E 018°55'0 0.0
2018-Jun-11 03:00N 59°27' E 018°55'0 0.0
2018-Jun-11 02:30N 59°27' E 018°55'0 0.0
2018-Jun-11 02:01N 59°27' E 018°55'0 0.0
2018-Jun-11 01:30N 59°27' E 018°55'0 0.0
2018-Jun-11 01:00N 59°27' E 018°55'0 0.0
2018-Jun-11 00:31N 59°27' E 018°55'0 0.0
2018-Jun-11 00:00N 59°27' E 018°55'0 0.0
2018-Jun-10 23:31N 59°27' E 018°55'0 0.0
2018-Jun-10 23:00N 59°27' E 018°55'0 0.0
2018-Jun-10 22:30N 59°27' E 018°55'0 0.0
2018-Jun-10 22:00N 59°27' E 018°55'0 0.0
2018-Jun-10 21:30N 59°27' E 018°55'0 0.0
2018-Jun-10 21:00N 59°27' E 018°55'0 0.0
2018-Jun-10 20:30N 59°27' E 018°55'0 0.0
2018-Jun-10 19:59N 59°27' E 018°55'0 0.0
2018-Jun-10 19:30N 59°27' E 018°55'0 0.0
2018-Jun-10 19:00N 59°27' E 018°55'3 4.2
2018-Jun-10 18:22N 59°25' E 018°51'515.2
2018-Jun-10 18:00N 59°23' E 018°42'713.1
2018-Jun-10 17:28N 59°25' E 018°29'4 8.8
2018-Jun-10 17:00N 59°24' E 018°21'5 9.3
2018-Jun-10 16:30N 59°21' E 018°15'510.7
2018-Jun-10 16:01N 59°20' E 018°04'0 0.1
2018-Jun-10 15:30N 59°20' E 018°04'0 0.0
2018-Jun-10 15:00N 59°20' E 018°04'1 0.8
2018-Jun-10 14:00N 59°19' E 018°06'713.3
2018-Jun-10 13:30N 59°22' E 018°17'5 9.3
2018-Jun-10 13:00N 59°26' E 018°24'815.2
2018-Jun-10 12:28N 59°23' E 018°39'4 7.8
2018-Jun-10 12:00N 59°23' E 018°46'2 3.6
2018-Jun-10 11:30N 59°23' E 018°50'3 5.5
2018-Jun-10 11:00N 59°25' E 018°54'1 3.0
2018-Jun-10 10:31N 59°26' E 018°55'4 7.3
2018-Jun-10 10:00N 59°22' E 018°53'3 6.0
2018-Jun-10 09:27N 59°23' E 018°46'1 3.3
2018-Jun-10 09:00N 59°23' E 018°43'4 6.2
2018-Jun-10 08:25N 59°22' E 018°36'1 1.9
2018-Jun-10 07:59N 59°23' E 018°37'3 6.0
2018-Jun-10 07:30N 59°25' E 018°41'  

Dump ship's entire track history